sensor_id;sensor_type;location;lat;lon;timestamp;temperature;humidity
14529;DHT22;7351;51.194;4.098;2023-02-21T00:00:37;17.70;99.90
14529;DHT22;7351;51.194;4.098;2023-02-21T00:03:22;17.70;99.90
14529;DHT22;7351;51.194;4.098;2023-02-21T00:06:08;17.70;99.90
14529;DHT22;7351;51.194;4.098;2023-02-21T00:08:53;17.70;99.90
14529;DHT22;7351;51.194;4.098;2023-02-21T00:11:40;17.70;99.90
14529;DHT22;7351;51.194;4.098;2023-02-21T00:14:25;17.70;99.90
14529;DHT22;7351;51.194;4.098;2023-02-21T00:17:09;17.70;99.90
14529;DHT22;7351;51.194;4.098;2023-02-21T00:19:53;17.70;99.90
14529;DHT22;7351;51.194;4.098;2023-02-21T00:22:39;17.70;99.90
14529;DHT22;7351;51.194;4.098;2023-02-21T00:25:24;17.70;99.90
14529;DHT22;7351;51.194;4.098;2023-02-21T00:28:08;17.70;99.90
14529;DHT22;7351;51.194;4.098;2023-02-21T00:30:52;17.70;99.90
14529;DHT22;7351;51.194;4.098;2023-02-21T00:33:37;17.60;99.90
14529;DHT22;7351;51.194;4.098;2023-02-21T00:36:21;17.60;99.90
14529;DHT22;7351;51.194;4.098;2023-02-21T00:39:07;17.60;99.90
14529;DHT22;7351;51.194;4.098;2023-02-21T00:41:51;17.60;99.90
14529;DHT22;7351;51.194;4.098;2023-02-21T00:44:35;17.60;99.90
14529;DHT22;7351;51.194;4.098;2023-02-21T00:47:19;17.60;99.90
14529;DHT22;7351;51.194;4.098;2023-02-21T00:50:04;17.60;99.90
14529;DHT22;7351;51.194;4.098;2023-02-21T00:52:48;17.60;99.90
14529;DHT22;7351;51.194;4.098;2023-02-21T00:55:34;17.60;99.90
14529;DHT22;7351;51.194;4.098;2023-02-21T00:58:20;17.60;99.90
14529;DHT22;7351;51.194;4.098;2023-02-21T01:01:04;17.60;99.90
14529;DHT22;7351;51.194;4.098;2023-02-21T01:03:49;17.60;99.90
14529;DHT22;7351;51.194;4.098;2023-02-21T01:06:33;17.60;99.90
14529;DHT22;7351;51.194;4.098;2023-02-21T01:09:17;17.60;99.90
14529;DHT22;7351;51.194;4.098;2023-02-21T01:12:03;17.50;99.90
14529;DHT22;7351;51.194;4.098;2023-02-21T01:14:48;17.50;99.90
14529;DHT22;7351;51.194;4.098;2023-02-21T01:17:32;17.50;99.90
14529;DHT22;7351;51.194;4.098;2023-02-21T01:20:16;17.50;99.90
14529;DHT22;7351;51.194;4.098;2023-02-21T01:23:01;17.50;99.90
14529;DHT22;7351;51.194;4.098;2023-02-21T01:25:45;17.50;99.90
14529;DHT22;7351;51.194;4.098;2023-02-21T01:28:30;17.50;99.90
14529;DHT22;7351;51.194;4.098;2023-02-21T01:31:16;17.50;99.90
14529;DHT22;7351;51.194;4.098;2023-02-21T01:34:01;17.40;99.90
14529;DHT22;7351;51.194;4.098;2023-02-21T01:36:45;17.50;99.90
14529;DHT22;7351;51.194;4.098;2023-02-21T01:39:29;17.50;99.90
14529;DHT22;7351;51.194;4.098;2023-02-21T01:42:14;17.50;99.90
14529;DHT22;7351;51.194;4.098;2023-02-21T01:45:39;17.50;99.90
14529;DHT22;7351;51.194;4.098;2023-02-21T01:48:25;17.40;99.90
14529;DHT22;7351;51.194;4.098;2023-02-21T01:51:11;17.40;99.90
14529;DHT22;7351;51.194;4.098;2023-02-21T01:53:57;17.40;99.90
14529;DHT22;7351;51.194;4.098;2023-02-21T01:56:42;17.40;99.90
14529;DHT22;7351;51.194;4.098;2023-02-21T01:59:27;17.40;99.90
14529;DHT22;7351;51.194;4.098;2023-02-21T02:02:17;17.40;99.90
14529;DHT22;7351;51.194;4.098;2023-02-21T02:05:03;17.40;99.90
14529;DHT22;7351;51.194;4.098;2023-02-21T02:07:49;17.40;99.90
14529;DHT22;7351;51.194;4.098;2023-02-21T02:10:34;17.40;99.90
14529;DHT22;7351;51.194;4.098;2023-02-21T02:13:28;17.40;99.90
14529;DHT22;7351;51.194;4.098;2023-02-21T02:16:00;17.40;99.90
14529;DHT22;7351;51.194;4.098;2023-02-21T02:18:43;17.30;99.90
14529;DHT22;7351;51.194;4.098;2023-02-21T02:24:35;17.30;99.90
14529;DHT22;7351;51.194;4.098;2023-02-21T02:36:14;17.30;99.90
14529;DHT22;7351;51.194;4.098;2023-02-21T02:38:52;17.30;99.90
14529;DHT22;7351;51.194;4.098;2023-02-21T02:41:31;17.30;99.90
14529;DHT22;7351;51.194;4.098;2023-02-21T02:44:05;17.30;99.90
14529;DHT22;7351;51.194;4.098;2023-02-21T02:46:34;17.30;99.90
14529;DHT22;7351;51.194;4.098;2023-02-21T02:49:06;17.30;99.90
14529;DHT22;7351;51.194;4.098;2023-02-21T02:51:36;17.30;99.90
14529;DHT22;7351;51.194;4.098;2023-02-21T02:54:03;17.20;99.90
14529;DHT22;7351;51.194;4.098;2023-02-21T02:56:30;17.30;99.90
14529;DHT22;7351;51.194;4.098;2023-02-21T02:59:04;17.20;99.90
14529;DHT22;7351;51.194;4.098;2023-02-21T03:02:00;17.20;99.90
14529;DHT22;7351;51.194;4.098;2023-02-21T03:07:46;17.20;99.90
14529;DHT22;7351;51.194;4.098;2023-02-21T03:10:22;17.20;99.90
14529;DHT22;7351;51.194;4.098;2023-02-21T03:12:59;17.20;99.90
14529;DHT22;7351;51.194;4.098;2023-02-21T03:15:33;17.20;99.90
14529;DHT22;7351;51.194;4.098;2023-02-21T03:18:04;17.20;99.90
14529;DHT22;7351;51.194;4.098;2023-02-21T03:20:35;17.20;99.90
14529;DHT22;7351;51.194;4.098;2023-02-21T03:23:05;17.20;99.90
14529;DHT22;7351;51.194;4.098;2023-02-21T03:25:34;17.10;99.90
14529;DHT22;7351;51.194;4.098;2023-02-21T03:28:03;17.10;99.90
14529;DHT22;7351;51.194;4.098;2023-02-21T03:30:30;17.20;99.90
14529;DHT22;7351;51.194;4.098;2023-02-21T03:32:57;17.10;99.90
14529;DHT22;7351;51.194;4.098;2023-02-21T03:35:27;17.10;99.90
14529;DHT22;7351;51.194;4.098;2023-02-21T03:37:56;17.10;99.90
14529;DHT22;7351;51.194;4.098;2023-02-21T03:40:27;17.10;99.90
14529;DHT22;7351;51.194;4.098;2023-02-21T03:42:55;17.10;99.90
14529;DHT22;7351;51.194;4.098;2023-02-21T03:45:23;17.10;99.90
14529;DHT22;7351;51.194;4.098;2023-02-21T03:47:49;17.10;99.90
14529;DHT22;7351;51.194;4.098;2023-02-21T03:50:17;17.10;99.90
14529;DHT22;7351;51.194;4.098;2023-02-21T03:52:44;17.10;99.90
14529;DHT22;7351;51.194;4.098;2023-02-21T03:55:11;17.10;99.90
14529;DHT22;7351;51.194;4.098;2023-02-21T03:57:39;17.10;99.90
14529;DHT22;7351;51.194;4.098;2023-02-21T04:00:07;17.00;99.90
14529;DHT22;7351;51.194;4.098;2023-02-21T04:02:34;17.00;99.90
14529;DHT22;7351;51.194;4.098;2023-02-21T04:05:02;17.00;99.90
14529;DHT22;7351;51.194;4.098;2023-02-21T04:07:29;17.00;99.90
14529;DHT22;7351;51.194;4.098;2023-02-21T04:09:56;17.00;99.90
14529;DHT22;7351;51.194;4.098;2023-02-21T04:12:23;17.00;99.90
14529;DHT22;7351;51.194;4.098;2023-02-21T04:14:51;17.00;99.90
14529;DHT22;7351;51.194;4.098;2023-02-21T04:17:21;17.00;99.90
14529;DHT22;7351;51.194;4.098;2023-02-21T04:19:48;17.10;99.90
14529;DHT22;7351;51.194;4.098;2023-02-21T04:22:15;17.20;99.90
14529;DHT22;7351;51.194;4.098;2023-02-21T04:24:42;17.30;99.90
14529;DHT22;7351;51.194;4.098;2023-02-21T04:27:09;17.30;99.90
14529;DHT22;7351;51.194;4.098;2023-02-21T04:29:36;17.40;99.90
14529;DHT22;7351;51.194;4.098;2023-02-21T04:32:04;17.50;99.90
14529;DHT22;7351;51.194;4.098;2023-02-21T04:34:31;17.60;99.90
14529;DHT22;7351;51.194;4.098;2023-02-21T04:36:58;17.70;99.90
14529;DHT22;7351;51.194;4.098;2023-02-21T04:39:25;17.70;99.90
14529;DHT22;7351;51.194;4.098;2023-02-21T04:41:52;17.80;99.90
14529;DHT22;7351;51.194;4.098;2023-02-21T04:44:19;17.80;99.90
14529;DHT22;7351;51.194;4.098;2023-02-21T04:46:46;17.90;99.90
14529;DHT22;7351;51.194;4.098;2023-02-21T04:49:14;17.90;99.90
14529;DHT22;7351;51.194;4.098;2023-02-21T04:51:41;18.00;99.90
14529;DHT22;7351;51.194;4.098;2023-02-21T04:54:08;18.00;99.90
14529;DHT22;7351;51.194;4.098;2023-02-21T04:56:35;18.10;99.90
14529;DHT22;7351;51.194;4.098;2023-02-21T04:59:04;18.10;99.90
14529;DHT22;7351;51.194;4.098;2023-02-21T05:01:31;18.10;99.90
14529;DHT22;7351;51.194;4.098;2023-02-21T05:03:58;18.20;99.90
14529;DHT22;7351;51.194;4.098;2023-02-21T05:06:28;18.20;99.90
14529;DHT22;7351;51.194;4.098;2023-02-21T05:08:55;18.30;99.90
14529;DHT22;7351;51.194;4.098;2023-02-21T05:11:23;18.30;99.90
14529;DHT22;7351;51.194;4.098;2023-02-21T05:13:50;18.30;99.90
14529;DHT22;7351;51.194;4.098;2023-02-21T05:16:18;18.30;99.90
14529;DHT22;7351;51.194;4.098;2023-02-21T05:18:46;18.40;99.90
14529;DHT22;7351;51.194;4.098;2023-02-21T05:21:15;18.40;99.90
14529;DHT22;7351;51.194;4.098;2023-02-21T05:23:45;18.40;99.90
14529;DHT22;7351;51.194;4.098;2023-02-21T05:26:21;18.40;99.90
14529;DHT22;7351;51.194;4.098;2023-02-21T05:28:49;18.50;99.90
14529;DHT22;7351;51.194;4.098;2023-02-21T05:31:17;18.50;99.90
14529;DHT22;7351;51.194;4.098;2023-02-21T05:33:44;18.60;99.90
14529;DHT22;7351;51.194;4.098;2023-02-21T05:36:11;18.70;99.90
14529;DHT22;7351;51.194;4.098;2023-02-21T05:38:47;18.70;99.90
14529;DHT22;7351;51.194;4.098;2023-02-21T05:41:14;18.90;99.90
14529;DHT22;7351;51.194;4.098;2023-02-21T05:43:42;18.90;99.90
14529;DHT22;7351;51.194;4.098;2023-02-21T05:46:21;19.00;99.90
14529;DHT22;7351;51.194;4.098;2023-02-21T05:48:48;18.90;99.90
14529;DHT22;7351;51.194;4.098;2023-02-21T05:51:15;19.00;99.90
14529;DHT22;7351;51.194;4.098;2023-02-21T05:53:44;19.00;99.90
14529;DHT22;7351;51.194;4.098;2023-02-21T05:56:12;19.00;99.90
14529;DHT22;7351;51.194;4.098;2023-02-21T05:58:39;19.00;99.90
14529;DHT22;7351;51.194;4.098;2023-02-21T06:01:06;19.00;99.90
14529;DHT22;7351;51.194;4.098;2023-02-21T06:03:33;19.10;99.90
14529;DHT22;7351;51.194;4.098;2023-02-21T06:06:01;19.10;99.90
14529;DHT22;7351;51.194;4.098;2023-02-21T06:08:28;19.10;99.90
14529;DHT22;7351;51.194;4.098;2023-02-21T06:10:56;19.10;99.90
14529;DHT22;7351;51.194;4.098;2023-02-21T06:13:23;19.10;99.90
14529;DHT22;7351;51.194;4.098;2023-02-21T06:15:51;19.10;99.90
14529;DHT22;7351;51.194;4.098;2023-02-21T06:18:18;19.10;99.90
14529;DHT22;7351;51.194;4.098;2023-02-21T06:20:45;19.10;99.90
14529;DHT22;7351;51.194;4.098;2023-02-21T06:23:12;19.10;99.90
14529;DHT22;7351;51.194;4.098;2023-02-21T06:25:39;19.10;99.90
14529;DHT22;7351;51.194;4.098;2023-02-21T06:28:07;19.00;99.90
14529;DHT22;7351;51.194;4.098;2023-02-21T06:30:34;19.00;99.90
14529;DHT22;7351;51.194;4.098;2023-02-21T06:33:01;18.90;99.90
14529;DHT22;7351;51.194;4.098;2023-02-21T06:35:28;18.90;99.90
14529;DHT22;7351;51.194;4.098;2023-02-21T06:37:55;18.80;99.90
14529;DHT22;7351;51.194;4.098;2023-02-21T06:40:22;18.80;99.90
14529;DHT22;7351;51.194;4.098;2023-02-21T06:42:49;18.80;99.90
14529;DHT22;7351;51.194;4.098;2023-02-21T06:45:17;18.80;99.90
14529;DHT22;7351;51.194;4.098;2023-02-21T06:47:44;18.80;99.90
14529;DHT22;7351;51.194;4.098;2023-02-21T06:50:11;18.80;99.90
14529;DHT22;7351;51.194;4.098;2023-02-21T06:52:38;18.80;99.90
14529;DHT22;7351;51.194;4.098;2023-02-21T06:55:06;18.80;99.90
14529;DHT22;7351;51.194;4.098;2023-02-21T06:57:33;18.80;99.90
14529;DHT22;7351;51.194;4.098;2023-02-21T07:00:00;18.80;99.90
14529;DHT22;7351;51.194;4.098;2023-02-21T07:02:28;18.80;99.90
14529;DHT22;7351;51.194;4.098;2023-02-21T07:04:55;18.80;99.90
14529;DHT22;7351;51.194;4.098;2023-02-21T07:07:22;18.70;99.90
14529;DHT22;7351;51.194;4.098;2023-02-21T07:09:49;18.70;99.90
14529;DHT22;7351;51.194;4.098;2023-02-21T07:12:16;18.70;99.90
14529;DHT22;7351;51.194;4.098;2023-02-21T07:14:43;18.60;99.90
14529;DHT22;7351;51.194;4.098;2023-02-21T07:17:10;18.60;99.90
14529;DHT22;7351;51.194;4.098;2023-02-21T07:19:38;18.60;99.90
14529;DHT22;7351;51.194;4.098;2023-02-21T07:22:06;18.60;99.90
14529;DHT22;7351;51.194;4.098;2023-02-21T07:24:33;18.60;99.90
14529;DHT22;7351;51.194;4.098;2023-02-21T07:27:00;18.60;99.90
14529;DHT22;7351;51.194;4.098;2023-02-21T07:29:28;18.50;99.90
14529;DHT22;7351;51.194;4.098;2023-02-21T07:31:54;18.50;99.90
14529;DHT22;7351;51.194;4.098;2023-02-21T07:34:22;18.50;99.90
14529;DHT22;7351;51.194;4.098;2023-02-21T07:36:51;18.50;99.90
14529;DHT22;7351;51.194;4.098;2023-02-21T07:39:18;18.50;99.90
14529;DHT22;7351;51.194;4.098;2023-02-21T07:41:45;18.50;99.90
14529;DHT22;7351;51.194;4.098;2023-02-21T07:44:12;18.50;99.90
14529;DHT22;7351;51.194;4.098;2023-02-21T07:46:39;18.50;99.90
14529;DHT22;7351;51.194;4.098;2023-02-21T07:49:07;18.50;99.90
14529;DHT22;7351;51.194;4.098;2023-02-21T07:51:35;18.50;99.90
14529;DHT22;7351;51.194;4.098;2023-02-21T07:54:03;18.50;99.90
14529;DHT22;7351;51.194;4.098;2023-02-21T07:56:30;18.50;99.90
14529;DHT22;7351;51.194;4.098;2023-02-21T07:58:57;18.50;99.90
14529;DHT22;7351;51.194;4.098;2023-02-21T08:01:25;18.50;99.90
14529;DHT22;7351;51.194;4.098;2023-02-21T08:03:52;18.50;99.90
14529;DHT22;7351;51.194;4.098;2023-02-21T08:06:19;18.50;99.90
14529;DHT22;7351;51.194;4.098;2023-02-21T08:08:46;18.40;99.90
14529;DHT22;7351;51.194;4.098;2023-02-21T08:11:15;18.40;99.90
14529;DHT22;7351;51.194;4.098;2023-02-21T08:13:42;18.40;99.90
14529;DHT22;7351;51.194;4.098;2023-02-21T08:16:09;18.40;99.90
14529;DHT22;7351;51.194;4.098;2023-02-21T08:18:35;18.40;99.90
14529;DHT22;7351;51.194;4.098;2023-02-21T08:21:03;18.40;99.90
14529;DHT22;7351;51.194;4.098;2023-02-21T08:23:30;18.30;99.90
14529;DHT22;7351;51.194;4.098;2023-02-21T08:25:57;18.30;99.90
14529;DHT22;7351;51.194;4.098;2023-02-21T08:28:25;18.30;99.90
14529;DHT22;7351;51.194;4.098;2023-02-21T08:30:52;18.30;99.90
14529;DHT22;7351;51.194;4.098;2023-02-21T08:33:19;18.30;99.90
14529;DHT22;7351;51.194;4.098;2023-02-21T08:35:46;18.30;99.90
14529;DHT22;7351;51.194;4.098;2023-02-21T08:38:13;18.30;99.90
14529;DHT22;7351;51.194;4.098;2023-02-21T08:40:40;18.30;99.90
14529;DHT22;7351;51.194;4.098;2023-02-21T08:43:07;18.30;99.90
14529;DHT22;7351;51.194;4.098;2023-02-21T08:45:35;18.20;99.90
14529;DHT22;7351;51.194;4.098;2023-02-21T08:48:03;18.30;99.90
14529;DHT22;7351;51.194;4.098;2023-02-21T08:50:30;18.30;99.90
14529;DHT22;7351;51.194;4.098;2023-02-21T08:52:59;18.30;99.90
14529;DHT22;7351;51.194;4.098;2023-02-21T08:55:26;18.40;99.90
14529;DHT22;7351;51.194;4.098;2023-02-21T08:57:53;18.40;99.90
14529;DHT22;7351;51.194;4.098;2023-02-21T09:00:22;18.50;99.90
14529;DHT22;7351;51.194;4.098;2023-02-21T09:02:52;18.50;99.90
14529;DHT22;7351;51.194;4.098;2023-02-21T09:05:22;18.60;99.90
14529;DHT22;7351;51.194;4.098;2023-02-21T09:07:50;18.60;99.90
14529;DHT22;7351;51.194;4.098;2023-02-21T09:10:20;18.70;99.90
14529;DHT22;7351;51.194;4.098;2023-02-21T09:12:47;18.70;99.90
14529;DHT22;7351;51.194;4.098;2023-02-21T09:15:14;18.70;99.90
14529;DHT22;7351;51.194;4.098;2023-02-21T09:17:42;18.70;99.90
14529;DHT22;7351;51.194;4.098;2023-02-21T09:20:14;18.70;99.90
14529;DHT22;7351;51.194;4.098;2023-02-21T09:22:42;18.80;99.90
14529;DHT22;7351;51.194;4.098;2023-02-21T09:25:10;18.80;99.90
14529;DHT22;7351;51.194;4.098;2023-02-21T09:27:38;18.80;99.90
14529;DHT22;7351;51.194;4.098;2023-02-21T09:30:06;18.80;99.90
14529;DHT22;7351;51.194;4.098;2023-02-21T09:32:34;18.80;99.90
14529;DHT22;7351;51.194;4.098;2023-02-21T09:35:02;18.80;99.90
14529;DHT22;7351;51.194;4.098;2023-02-21T09:37:31;18.90;99.90
14529;DHT22;7351;51.194;4.098;2023-02-21T09:39:58;18.90;99.90
14529;DHT22;7351;51.194;4.098;2023-02-21T09:42:29;18.90;99.90
14529;DHT22;7351;51.194;4.098;2023-02-21T09:44:56;18.90;99.90
14529;DHT22;7351;51.194;4.098;2023-02-21T09:47:27;18.90;99.90
14529;DHT22;7351;51.194;4.098;2023-02-21T09:49:59;18.90;99.90
14529;DHT22;7351;51.194;4.098;2023-02-21T09:52:32;18.90;99.90
14529;DHT22;7351;51.194;4.098;2023-02-21T09:55:04;18.90;99.90
14529;DHT22;7351;51.194;4.098;2023-02-21T09:57:33;18.90;99.90
14529;DHT22;7351;51.194;4.098;2023-02-21T10:00:15;18.90;99.90
14529;DHT22;7351;51.194;4.098;2023-02-21T10:02:53;18.90;99.90
14529;DHT22;7351;51.194;4.098;2023-02-21T10:05:32;18.90;99.90
14529;DHT22;7351;51.194;4.098;2023-02-21T10:08:11;18.90;99.90
14529;DHT22;7351;51.194;4.098;2023-02-21T10:10:44;19.00;99.90
14529;DHT22;7351;51.194;4.098;2023-02-21T10:13:21;19.00;99.90
14529;DHT22;7351;51.194;4.098;2023-02-21T10:15:53;19.00;99.90
14529;DHT22;7351;51.194;4.098;2023-02-21T10:18:27;19.00;99.90
14529;DHT22;7351;51.194;4.098;2023-02-21T10:21:00;19.00;99.90
14529;DHT22;7351;51.194;4.098;2023-02-21T10:23:36;19.00;99.90
14529;DHT22;7351;51.194;4.098;2023-02-21T10:26:06;19.00;99.90
14529;DHT22;7351;51.194;4.098;2023-02-21T10:28:35;19.00;99.90
14529;DHT22;7351;51.194;4.098;2023-02-21T10:31:06;19.00;99.90
14529;DHT22;7351;51.194;4.098;2023-02-21T10:33:36;19.00;99.90
14529;DHT22;7351;51.194;4.098;2023-02-21T10:36:10;19.10;99.90
14529;DHT22;7351;51.194;4.098;2023-02-21T10:38:42;19.10;99.90
14529;DHT22;7351;51.194;4.098;2023-02-21T10:41:12;19.10;99.90
14529;DHT22;7351;51.194;4.098;2023-02-21T10:43:43;19.10;99.90
14529;DHT22;7351;51.194;4.098;2023-02-21T10:46:14;19.10;99.90
14529;DHT22;7351;51.194;4.098;2023-02-21T10:48:45;19.10;99.90
14529;DHT22;7351;51.194;4.098;2023-02-21T10:51:15;19.10;99.90
14529;DHT22;7351;51.194;4.098;2023-02-21T10:53:45;19.10;99.90
14529;DHT22;7351;51.194;4.098;2023-02-21T10:56:26;19.10;99.90
14529;DHT22;7351;51.194;4.098;2023-02-21T10:58:56;19.20;99.90
14529;DHT22;7351;51.194;4.098;2023-02-21T11:01:36;19.20;99.90
14529;DHT22;7351;51.194;4.098;2023-02-21T11:04:22;19.20;99.90
14529;DHT22;7351;51.194;4.098;2023-02-21T11:06:52;19.20;99.90
14529;DHT22;7351;51.194;4.098;2023-02-21T11:09:34;19.20;99.90
14529;DHT22;7351;51.194;4.098;2023-02-21T11:12:04;19.20;99.90
14529;DHT22;7351;51.194;4.098;2023-02-21T11:14:32;19.20;99.90
14529;DHT22;7351;51.194;4.098;2023-02-21T11:17:11;19.20;99.90
14529;DHT22;7351;51.194;4.098;2023-02-21T11:19:43;19.20;99.90
14529;DHT22;7351;51.194;4.098;2023-02-21T11:22:11;19.20;99.90
14529;DHT22;7351;51.194;4.098;2023-02-21T11:24:59;19.20;99.90
14529;DHT22;7351;51.194;4.098;2023-02-21T11:27:29;19.20;99.90
14529;DHT22;7351;51.194;4.098;2023-02-21T11:29:57;19.20;99.90
14529;DHT22;7351;51.194;4.098;2023-02-21T11:32:32;19.30;99.90
14529;DHT22;7351;51.194;4.098;2023-02-21T11:35:07;19.20;99.90
14529;DHT22;7351;51.194;4.098;2023-02-21T11:37:47;19.20;99.90
14529;DHT22;7351;51.194;4.098;2023-02-21T11:40:32;19.20;99.90
14529;DHT22;7351;51.194;4.098;2023-02-21T11:43:22;19.20;99.90
14529;DHT22;7351;51.194;4.098;2023-02-21T11:46:02;19.20;99.90
14529;DHT22;7351;51.194;4.098;2023-02-21T11:48:33;19.20;99.90
14529;DHT22;7351;51.194;4.098;2023-02-21T11:51:04;19.20;99.90
14529;DHT22;7351;51.194;4.098;2023-02-21T11:53:38;19.20;99.90
14529;DHT22;7351;51.194;4.098;2023-02-21T11:56:23;19.30;99.90
14529;DHT22;7351;51.194;4.098;2023-02-21T11:58:59;19.30;99.90
14529;DHT22;7351;51.194;4.098;2023-02-21T12:01:31;19.30;99.90
14529;DHT22;7351;51.194;4.098;2023-02-21T12:04:13;19.30;99.90
14529;DHT22;7351;51.194;4.098;2023-02-21T12:06:44;19.30;99.90
14529;DHT22;7351;51.194;4.098;2023-02-21T12:09:15;19.30;99.90
14529;DHT22;7351;51.194;4.098;2023-02-21T12:11:54;19.30;99.90
14529;DHT22;7351;51.194;4.098;2023-02-21T12:14:41;19.40;99.90
14529;DHT22;7351;51.194;4.098;2023-02-21T12:17:31;19.40;99.90
14529;DHT22;7351;51.194;4.098;2023-02-21T12:23:13;19.40;99.90
14529;DHT22;7351;51.194;4.098;2023-02-21T12:25:54;19.40;99.90
14529;DHT22;7351;51.194;4.098;2023-02-21T12:28:39;19.40;99.90
14529;DHT22;7351;51.194;4.098;2023-02-21T12:31:19;19.40;99.90
14529;DHT22;7351;51.194;4.098;2023-02-21T12:33:55;19.40;99.90
14529;DHT22;7351;51.194;4.098;2023-02-21T12:36:41;19.40;99.90
14529;DHT22;7351;51.194;4.098;2023-02-21T12:39:21;19.40;99.90
14529;DHT22;7351;51.194;4.098;2023-02-21T12:42:17;19.40;99.90
14529;DHT22;7351;51.194;4.098;2023-02-21T12:44:58;19.40;99.90
14529;DHT22;7351;51.194;4.098;2023-02-21T12:47:33;19.40;99.90
14529;DHT22;7351;51.194;4.098;2023-02-21T12:50:02;19.40;99.90
14529;DHT22;7351;51.194;4.098;2023-02-21T12:52:35;19.40;99.90
14529;DHT22;7351;51.194;4.098;2023-02-21T12:55:11;19.50;99.90
14529;DHT22;7351;51.194;4.098;2023-02-21T12:57:47;19.40;99.90
14529;DHT22;7351;51.194;4.098;2023-02-21T13:00:19;19.50;99.90
14529;DHT22;7351;51.194;4.098;2023-02-21T13:02:54;19.50;99.90
14529;DHT22;7351;51.194;4.098;2023-02-21T13:05:31;19.50;99.90
14529;DHT22;7351;51.194;4.098;2023-02-21T13:08:02;19.50;99.90
14529;DHT22;7351;51.194;4.098;2023-02-21T13:10:41;19.50;99.90
14529;DHT22;7351;51.194;4.098;2023-02-21T13:13:12;19.50;99.90
14529;DHT22;7351;51.194;4.098;2023-02-21T13:15:42;19.50;99.90
14529;DHT22;7351;51.194;4.098;2023-02-21T13:18:18;19.50;99.90
14529;DHT22;7351;51.194;4.098;2023-02-21T13:20:48;19.50;99.90
14529;DHT22;7351;51.194;4.098;2023-02-21T13:23:18;19.50;99.90
14529;DHT22;7351;51.194;4.098;2023-02-21T13:25:56;19.50;99.90
14529;DHT22;7351;51.194;4.098;2023-02-21T13:28:27;19.50;99.90
14529;DHT22;7351;51.194;4.098;2023-02-21T13:31:00;19.50;99.90
14529;DHT22;7351;51.194;4.098;2023-02-21T13:33:34;19.50;99.90
14529;DHT22;7351;51.194;4.098;2023-02-21T13:36:21;19.50;99.90
14529;DHT22;7351;51.194;4.098;2023-02-21T13:39:10;19.50;99.90
14529;DHT22;7351;51.194;4.098;2023-02-21T13:41:39;19.50;99.90
14529;DHT22;7351;51.194;4.098;2023-02-21T13:44:10;19.50;99.90
14529;DHT22;7351;51.194;4.098;2023-02-21T13:47:02;19.50;99.90
14529;DHT22;7351;51.194;4.098;2023-02-21T13:49:43;19.40;99.90
14529;DHT22;7351;51.194;4.098;2023-02-21T13:55:23;19.40;99.90
14529;DHT22;7351;51.194;4.098;2023-02-21T14:01:19;19.40;99.90
14529;DHT22;7351;51.194;4.098;2023-02-21T14:03:49;19.30;99.90
14529;DHT22;7351;51.194;4.098;2023-02-21T14:06:35;19.20;99.90
14529;DHT22;7351;51.194;4.098;2023-02-21T14:09:11;19.20;99.90
14529;DHT22;7351;51.194;4.098;2023-02-21T14:11:45;19.20;99.90
14529;DHT22;7351;51.194;4.098;2023-02-21T14:14:26;19.10;99.90
14529;DHT22;7351;51.194;4.098;2023-02-21T14:17:00;19.10;99.90
14529;DHT22;7351;51.194;4.098;2023-02-21T14:19:34;19.10;99.90
14529;DHT22;7351;51.194;4.098;2023-02-21T14:22:08;19.10;99.90
14529;DHT22;7351;51.194;4.098;2023-02-21T14:24:38;19.00;99.90
14529;DHT22;7351;51.194;4.098;2023-02-21T14:27:31;18.90;99.90
14529;DHT22;7351;51.194;4.098;2023-02-21T14:30:26;19.00;99.90
14529;DHT22;7351;51.194;4.098;2023-02-21T14:32:56;19.00;99.90
14529;DHT22;7351;51.194;4.098;2023-02-21T14:35:31;19.00;99.90
14529;DHT22;7351;51.194;4.098;2023-02-21T14:38:00;19.00;99.90
14529;DHT22;7351;51.194;4.098;2023-02-21T14:40:39;18.90;99.90
14529;DHT22;7351;51.194;4.098;2023-02-21T14:43:26;18.90;99.90
14529;DHT22;7351;51.194;4.098;2023-02-21T14:55:37;18.80;99.90
14529;DHT22;7351;51.194;4.098;2023-02-21T14:58:37;18.80;99.90
14529;DHT22;7351;51.194;4.098;2023-02-21T15:01:12;18.70;99.90
14529;DHT22;7351;51.194;4.098;2023-02-21T15:03:45;18.70;99.90
14529;DHT22;7351;51.194;4.098;2023-02-21T15:06:17;18.60;99.90
14529;DHT22;7351;51.194;4.098;2023-02-21T15:08:48;18.60;99.90
14529;DHT22;7351;51.194;4.098;2023-02-21T15:11:22;18.60;99.90
14529;DHT22;7351;51.194;4.098;2023-02-21T15:14:12;18.50;99.90
14529;DHT22;7351;51.194;4.098;2023-02-21T15:16:44;18.50;99.90
14529;DHT22;7351;51.194;4.098;2023-02-21T15:19:20;18.50;99.90
14529;DHT22;7351;51.194;4.098;2023-02-21T15:22:13;18.50;99.90
14529;DHT22;7351;51.194;4.098;2023-02-21T15:24:40;18.50;99.90
14529;DHT22;7351;51.194;4.098;2023-02-21T15:27:09;18.50;99.90
14529;DHT22;7351;51.194;4.098;2023-02-21T15:29:36;18.50;99.90
14529;DHT22;7351;51.194;4.098;2023-02-21T15:32:04;18.50;99.90
14529;DHT22;7351;51.194;4.098;2023-02-21T15:34:36;18.60;99.90
14529;DHT22;7351;51.194;4.098;2023-02-21T15:37:13;18.60;99.90
14529;DHT22;7351;51.194;4.098;2023-02-21T15:39:44;18.70;99.90
14529;DHT22;7351;51.194;4.098;2023-02-21T15:42:17;18.80;99.90
14529;DHT22;7351;51.194;4.098;2023-02-21T15:44:48;18.80;99.90
14529;DHT22;7351;51.194;4.098;2023-02-21T15:47:19;18.90;99.90
14529;DHT22;7351;51.194;4.098;2023-02-21T15:49:59;19.00;99.90
14529;DHT22;7351;51.194;4.098;2023-02-21T15:52:30;19.00;99.90
14529;DHT22;7351;51.194;4.098;2023-02-21T15:55:25;19.00;99.90
14529;DHT22;7351;51.194;4.098;2023-02-21T15:57:59;19.10;99.90
14529;DHT22;7351;51.194;4.098;2023-02-21T16:00:28;19.10;99.90
14529;DHT22;7351;51.194;4.098;2023-02-21T16:03:28;19.10;99.90
14529;DHT22;7351;51.194;4.098;2023-02-21T16:06:09;19.10;99.90
14529;DHT22;7351;51.194;4.098;2023-02-21T16:08:49;19.20;99.90
14529;DHT22;7351;51.194;4.098;2023-02-21T16:11:16;19.20;99.90
14529;DHT22;7351;51.194;4.098;2023-02-21T16:13:45;19.20;99.90
14529;DHT22;7351;51.194;4.098;2023-02-21T16:16:12;19.30;99.90
14529;DHT22;7351;51.194;4.098;2023-02-21T16:18:39;19.30;99.90
14529;DHT22;7351;51.194;4.098;2023-02-21T16:21:21;19.30;99.90
14529;DHT22;7351;51.194;4.098;2023-02-21T16:23:48;19.30;99.90
14529;DHT22;7351;51.194;4.098;2023-02-21T16:26:21;19.30;99.90
14529;DHT22;7351;51.194;4.098;2023-02-21T16:28:54;19.40;99.90
14529;DHT22;7351;51.194;4.098;2023-02-21T16:31:26;19.40;99.90
14529;DHT22;7351;51.194;4.098;2023-02-21T16:33:53;19.40;99.90
14529;DHT22;7351;51.194;4.098;2023-02-21T16:36:23;19.50;99.90
14529;DHT22;7351;51.194;4.098;2023-02-21T16:38:52;19.50;99.90
14529;DHT22;7351;51.194;4.098;2023-02-21T16:41:19;19.50;99.90
14529;DHT22;7351;51.194;4.098;2023-02-21T16:43:46;19.50;99.90
14529;DHT22;7351;51.194;4.098;2023-02-21T16:46:15;19.60;99.90
14529;DHT22;7351;51.194;4.098;2023-02-21T16:48:48;19.60;99.90
14529;DHT22;7351;51.194;4.098;2023-02-21T16:51:15;19.60;99.90
14529;DHT22;7351;51.194;4.098;2023-02-21T16:53:43;19.60;99.90
14529;DHT22;7351;51.194;4.098;2023-02-21T16:56:11;19.60;99.90
14529;DHT22;7351;51.194;4.098;2023-02-21T16:58:42;19.60;99.90